Time;durP1;ratioP1;P1;durP2;ratioP2;P2;SDS_P1;SDS_P2;PMS_P1;PMS_P2;Temp;Humidity;BMP_temperature;BMP_pressure;BME280_temperature;BME280_humidity;BME280_pressure;Samples;Min_cycle;Max_cycle;Signal;HPM_P1;HPM_P2
2022/07/22 00:00:50;;;;;;;18.70;17.30;;;;;;;16.73;100.00;97414.88;4952319;28;20434;-58
2022/07/22 00:03:18;;;;;;;19.63;18.13;;;;;;;16.72;100.00;97422.09;4971462;28;20296;-59
2022/07/22 00:05:46;;;;;;;18.60;17.20;;;;;;;16.70;100.00;97415.31;4966794;28;20205;-56
2022/07/22 00:08:14;;;;;;;18.80;17.40;;;;;;;16.67;100.00;97421.91;4932135;28;20229;-57
2022/07/22 00:10:42;;;;;;;17.83;16.43;;;;;;;16.65;100.00;97421.31;4966091;28;20384;-53
2022/07/22 00:13:12;;;;;;;20.63;19.00;;;;;;;16.57;100.00;97419.72;4973652;28;20569;-55
2022/07/22 00:15:40;;;;;;;20.33;18.63;;;;;;;16.56;100.00;97420.75;4945432;28;22448;-59
2022/07/22 00:18:08;;;;;;;19.47;17.97;;;;;;;16.54;100.00;97419.34;4969594;28;20229;-60
2022/07/22 00:20:36;;;;;;;18.50;17.10;;;;;;;16.52;100.00;97416.88;4972142;28;20300;-59
2022/07/22 00:23:04;;;;;;;18.90;17.40;;;;;;;16.49;100.00;97411.97;4931486;28;20320;-62
2022/07/22 00:25:32;;;;;;;19.17;17.57;;;;;;;16.51;100.00;97414.44;4966522;28;20288;-59
2022/07/22 00:28:00;;;;;;;19.17;17.77;;;;;;;16.51;100.00;97412.56;4968819;28;20237;-60
2022/07/22 00:30:30;;;;;;;17.07;15.77;;;;;;;16.53;100.00;97409.69;4955455;28;20431;-62
2022/07/22 00:32:58;;;;;;;18.40;17.00;;;;;;;16.54;100.00;97408.66;4973165;28;20264;-61
2022/07/22 00:35:26;;;;;;;19.63;18.13;;;;;;;16.57;100.00;97400.19;4971097;28;20817;-56
2022/07/22 00:37:54;;;;;;;19.20;17.70;;;;;;;16.57;100.00;97413.56;4965643;28;20737;-61
2022/07/22 00:40:23;;;;;;;18.60;17.10;;;;;;;16.56;100.00;97398.56;4945887;28;20508;-59
2022/07/22 00:42:52;;;;;;;17.77;16.43;;;;;;;16.54;100.00;97414.00;4966830;28;20615;-60
2022/07/22 00:45:33;;;;;;;18.27;16.77;;;;;;;16.49;100.00;97402.09;4954419;28;20223;-55
2022/07/22 00:48:01;;;;;;;19.57;18.17;;;;;;;16.46;100.00;97402.50;4967111;28;20258;-58
2022/07/22 00:50:29;;;;;;;20.00;18.60;;;;;;;16.45;100.00;97398.19;4970151;28;20873;-60
2022/07/22 00:52:57;;;;;;;19.33;17.63;;;;;;;16.41;100.00;97401.53;4969693;28;20295;-60
2022/07/22 00:55:25;;;;;;;18.80;17.33;;;;;;;16.35;100.00;97400.53;4932024;28;20909;-58
2022/07/22 00:57:53;;;;;;;21.47;19.60;;;;;;;16.30;100.00;97397.69;4968471;28;21129;-59
2022/07/22 01:00:22;;;;;;;19.87;18.33;;;;;;;16.27;100.00;97398.13;4950200;28;20724;-57
2022/07/22 01:02:51;;;;;;;20.03;18.53;;;;;;;16.21;100.00;97405.16;4971238;28;21008;-59
2022/07/22 01:05:20;;;;;;;19.83;18.30;;;;;;;16.16;100.00;97392.44;4966976;28;20230;-59
2022/07/22 01:07:48;;;;;;;19.97;18.47;;;;;;;16.09;100.00;97391.63;4970094;28;20316;-57
2022/07/22 01:10:16;;;;;;;20.23;18.63;;;;;;;16.06;100.00;97400.91;4926283;28;21185;-57
2022/07/22 01:12:44;;;;;;;19.23;17.83;;;;;;;16.08;100.00;97397.22;4923476;28;21137;-59
2022/07/22 01:15:12;;;;;;;20.30;18.53;;;;;;;16.09;100.00;97394.31;4953105;28;20868;-56
2022/07/22 01:17:40;;;;;;;19.00;17.60;;;;;;;16.08;100.00;97392.66;4964991;28;20400;-58
2022/07/22 01:20:11;;;;;;;19.87;18.33;;;;;;;16.08;100.00;97389.19;4954540;28;20249;-59
2022/07/22 01:22:39;;;;;;;20.13;18.63;;;;;;;16.03;100.00;97387.16;4967014;28;20823;-60
2022/07/22 01:25:07;;;;;;;19.33;17.93;;;;;;;16.01;100.00;97397.22;4968973;28;20209;-57
2022/07/22 01:27:36;;;;;;;19.63;18.03;;;;;;;15.98;100.00;97400.34;4929211;28;22939;-63
2022/07/22 01:30:05;;;;;;;19.80;18.40;;;;;;;15.92;100.00;97388.66;4967708;28;20265;-63
2022/07/22 01:32:33;;;;;;;20.70;19.17;;;;;;;15.88;100.00;97396.28;4968953;28;20914;-63
2022/07/22 01:35:01;;;;;;;21.17;19.57;;;;;;;15.84;100.00;97397.72;4956572;28;20238;-63
2022/07/22 01:37:49;;;;;;;21.83;20.07;;;;;;;15.82;100.00;97394.44;4952192;28;20283;-63
2022/07/22 01:40:17;;;;;;;21.23;19.60;;;;;;;15.80;100.00;97398.34;4970738;28;20300;-62
2022/07/22 01:42:45;;;;;;;20.73;19.13;;;;;;;15.73;100.00;97399.19;4928680;28;24691;-56
2022/07/22 01:45:13;;;;;;;21.13;19.43;;;;;;;15.68;100.00;97392.81;4971228;28;20264;-63
2022/07/22 01:47:43;;;;;;;21.30;19.57;;;;;;;15.66;100.00;97397.56;4968369;28;20233;-58
2022/07/22 01:50:12;;;;;;;21.70;19.93;;;;;;;15.62;100.00;97397.19;4972654;28;20226;-58
2022/07/22 01:52:40;;;;;;;23.80;21.90;;;;;;;15.60;100.00;97402.72;4946179;28;20280;-59
2022/07/22 01:55:12;;;;;;;23.57;21.47;;;;;;;15.59;100.00;97398.41;4972934;28;20233;-58
2022/07/22 01:57:40;;;;;;;22.30;20.37;;;;;;;15.61;100.00;97400.88;4968102;28;20467;-60
2022/07/22 02:00:10;;;;;;;22.57;20.80;;;;;;;15.61;100.00;97395.53;4930309;28;20209;-59
2022/07/22 02:02:38;;;;;;;21.27;19.67;;;;;;;15.57;100.00;97395.13;4971213;28;20342;-56
2022/07/22 02:05:08;;;;;;;22.57;20.53;;;;;;;15.55;100.00;97393.72;4972594;28;20256;-62
2022/07/22 02:07:36;;;;;;;21.10;19.50;;;;;;;15.52;100.00;97388.78;4946277;28;20232;-60
2022/07/22 02:10:05;;;;;;;21.67;19.73;;;;;;;15.46;100.00;97393.94;4970439;28;20230;-61
2022/07/22 02:12:35;;;;;;;21.93;20.07;;;;;;;15.41;100.00;97390.28;4967676;28;20209;-59
2022/07/22 02:15:04;;;;;;;21.00;19.10;;;;;;;15.38;100.00;97399.50;4927324;28;20299;-63
2022/07/22 02:17:33;;;;;;;20.43;18.87;;;;;;;15.39;100.00;97397.66;4969017;28;20229;-59
2022/07/22 02:20:02;;;;;;;21.93;20.13;;;;;;;15.39;100.00;97397.66;4971069;28;20202;-59
2022/07/22 02:22:31;;;;;;;21.70;19.90;;;;;;;15.39;100.00;97401.16;4946360;28;21241;-56
2022/07/22 02:25:00;;;;;;;21.20;19.53;;;;;;;15.33;100.00;97399.31;4971716;28;20631;-57
2022/07/22 02:27:28;;;;;;;20.60;19.00;;;;;;;15.26;100.00;97393.19;4965698;28;20252;-55
2022/07/22 02:29:58;;;;;;;21.40;19.43;;;;;;;15.22;100.00;97391.97;4931609;28;20234;-61
2022/07/22 02:32:26;;;;;;;21.03;19.07;;;;;;;15.17;100.00;97389.91;4965739;28;20412;-57
2022/07/22 02:34:55;;;;;;;20.53;18.83;;;;;;;15.17;100.00;97395.25;4967430;28;20205;-57
2022/07/22 02:37:24;;;;;;;20.67;19.07;;;;;;;15.15;100.00;97391.97;4937087;28;20225;-58
2022/07/22 02:39:52;;;;;;;23.23;21.40;;;;;;;15.14;100.00;97393.00;4943296;28;20531;-62
2022/07/22 02:42:21;;;;;;;21.83;20.03;;;;;;;15.14;100.00;97396.47;4969558;28;20232;-56
2022/07/22 02:44:49;;;;;;;22.97;21.10;;;;;;;15.16;100.00;97391.78;4949623;28;20221;-64
2022/07/22 02:47:19;;;;;;;22.43;20.73;;;;;;;15.15;100.00;97392.81;4930193;28;21367;-54
2022/07/22 02:49:47;;;;;;;22.33;20.33;;;;;;;15.09;100.00;97390.13;4940287;28;20221;-58
2022/07/22 02:52:15;;;;;;;21.40;19.77;;;;;;;15.04;100.00;97396.91;4949658;28;20874;-57
2022/07/22 02:54:43;;;;;;;21.07;19.37;;;;;;;14.99;100.00;97394.06;4948800;28;20286;-61
2022/07/22 02:57:11;;;;;;;20.77;19.03;;;;;;;14.97;100.00;97396.09;4966835;28;20762;-61
2022/07/22 02:59:39;;;;;;;22.40;20.47;;;;;;;14.96;100.00;97394.44;4970420;28;20280;-60
2022/07/22 03:02:07;;;;;;;19.70;18.13;;;;;;;14.92;100.00;97401.22;4921596;28;20450;-59
2022/07/22 03:04:37;;;;;;;20.63;19.03;;;;;;;14.87;100.00;97391.19;4968941;28;20221;-60
2022/07/22 03:07:05;;;;;;;22.60;20.80;;;;;;;14.86;100.00;97399.38;4938434;28;20946;-59
2022/07/22 03:09:33;;;;;;;22.80;20.90;;;;;;;14.90;100.00;97400.59;4929476;28;20808;-55
2022/07/22 03:12:01;;;;;;;21.60;19.90;;;;;;;14.92;100.00;97403.88;4968010;28;20309;-57
2022/07/22 03:14:29;;;;;;;21.03;19.40;;;;;;;14.88;100.00;97406.16;4969446;28;20206;-60
2022/07/22 03:16:58;;;;;;;21.43;19.73;;;;;;;14.78;100.00;97389.75;4927627;28;20229;-59
2022/07/22 03:19:27;;;;;;;20.87;19.07;;;;;;;14.87;100.00;97401.84;4923515;28;20307;-60
2022/07/22 03:21:57;;;;;;;20.67;19.07;;;;;;;14.85;100.00;97403.06;4934811;28;20214;-56
2022/07/22 03:24:25;;;;;;;21.97;20.07;;;;;;;14.85;100.00;97401.25;4968535;28;20233;-59
2022/07/22 03:26:53;;;;;;;22.17;20.47;;;;;;;14.87;100.00;97401.84;4949656;28;20307;-59
2022/07/22 03:29:21;;;;;;;22.07;20.37;;;;;;;14.83;100.00;97400.63;4932198;28;20699;-59
2022/07/22 03:31:49;;;;;;;21.30;19.50;;;;;;;14.83;100.00;97400.63;4938345;28;20412;-61
2022/07/22 03:34:17;;;;;;;22.10;20.37;;;;;;;14.79;100.00;97401.25;4944986;28;20253;-58
2022/07/22 03:36:45;;;;;;;22.13;20.20;;;;;;;14.74;100.00;97401.84;4920973;28;20339;-60
2022/07/22 03:39:14;;;;;;;21.73;19.83;;;;;;;14.79;100.00;97409.25;4966189;28;20856;-58
2022/07/22 03:41:42;;;;;;;22.83;21.00;;;;;;;14.78;100.00;97413.78;4950800;28;20296;-59
2022/07/22 03:44:11;;;;;;;22.63;20.83;;;;;;;14.81;100.00;97407.19;4954300;28;20292;-56
2022/07/22 03:46:39;;;;;;;22.07;20.17;;;;;;;14.77;100.00;97406.75;4970767;28;20291;-61
2022/07/22 03:49:07;;;;;;;23.03;21.03;;;;;;;14.75;100.00;97401.66;4969707;28;20209;-59
2022/07/22 03:51:35;;;;;;;22.70;20.90;;;;;;;14.73;100.00;97405.53;4922472;28;20631;-54
2022/07/22 03:54:03;;;;;;;21.87;20.03;;;;;;;14.74;100.00;97410.69;4968401;28;20407;-60
2022/07/22 03:56:32;;;;;;;20.47;18.87;;;;;;;14.78;100.00;97405.75;4972102;28;20272;-60
2022/07/22 03:59:01;;;;;;;21.17;19.37;;;;;;;14.79;100.00;97406.56;4932154;28;20581;-55
2022/07/22 04:01:29;;;;;;;21.27;19.53;;;;;;;14.80;100.00;97408.22;4971179;28;20256;-58
2022/07/22 04:03:57;;;;;;;21.20;19.57;;;;;;;14.82;100.00;97408.81;4966854;28;20245;-56
2022/07/22 04:06:31;;;;;;;22.80;20.90;;;;;;;14.85;100.00;97408.41;4923852;28;20220;-56
2022/07/22 04:08:59;;;;;;;22.63;20.83;;;;;;;14.92;100.00;97403.09;4966647;28;20330;-59
2022/07/22 04:11:28;;;;;;;21.83;20.03;;;;;;;14.96;100.00;97407.78;4970986;28;20312;-58
2022/07/22 04:13:57;;;;;;;22.30;20.50;;;;;;;15.00;100.00;97403.69;4936367;28;20750;-59
2022/07/22 04:16:25;;;;;;;22.60;20.70;;;;;;;15.08;100.00;97402.63;4972197;28;20312;-60
2022/07/22 04:18:53;;;;;;;21.37;19.67;;;;;;;15.16;100.00;97404.28;4972486;28;20744;-58
2022/07/22 04:21:22;;;;;;;21.50;19.73;;;;;;;15.23;100.00;97409.63;4926818;28;20653;-56
2022/07/22 04:23:50;;;;;;;22.57;20.77;;;;;;;15.25;100.00;97403.03;4971311;28;20331;-60
2022/07/22 04:26:18;;;;;;;21.73;20.03;;;;;;;15.34;100.00;97400.97;4964912;28;20217;-60
2022/07/22 04:28:46;;;;;;;24.07;22.20;;;;;;;15.40;100.00;97410.00;4951834;28;20260;-60
2022/07/22 04:31:16;;;;;;;22.63;20.83;;;;;;;15.51;100.00;97411.16;4959179;28;20750;-55
2022/07/22 04:33:44;;;;;;;23.37;21.57;;;;;;;15.61;100.00;97414.25;4937815;28;20380;-58
2022/07/22 04:36:12;;;;;;;22.13;20.43;;;;;;;15.68;100.00;97407.03;4972214;28;20292;-59
2022/07/22 04:38:40;;;;;;;22.47;20.67;;;;;;;15.76;100.00;97414.78;4892732;28;20885;-57
2022/07/22 04:41:08;;;;;;;22.17;20.57;;;;;;;15.91;100.00;97409.22;4953470;28;20637;-52
2022/07/22 04:43:36;;;;;;;23.47;21.77;;;;;;;16.02;100.00;97405.06;4950373;28;20884;-58
2022/07/22 04:46:07;;;;;;;23.23;21.33;;;;;;;16.16;100.00;97403.13;4956270;28;20721;-55
2022/07/22 04:48:37;;;;;;;23.37;21.57;;;;;;;16.28;100.00;97400.56;4969804;28;20229;-56
2022/07/22 04:51:05;;;;;;;22.70;21.00;;;;;;;16.41;100.00;97399.66;4971167;28;20284;-55
2022/07/22 04:53:33;;;;;;;24.00;22.13;;;;;;;16.53;100.00;97399.78;4928900;28;20268;-53
2022/07/22 04:56:14;;;;;;;22.80;20.87;;;;;;;16.62;100.00;97392.34;4946961;28;20260;-57
2022/07/22 04:58:43;;;;;;;22.77;21.07;;;;;;;16.73;100.00;97390.81;4952130;28;20701;-59
2022/07/22 05:01:12;;;;;;;22.13;20.40;;;;;;;16.81;100.00;97392.38;4955265;28;20699;-56
2022/07/22 05:03:42;;;;;;;21.03;19.33;;;;;;;16.91;100.00;97385.50;4969981;28;20291;-55
2022/07/22 05:06:10;;;;;;;22.47;20.67;;;;;;;17.03;100.00;97390.97;4972195;28;20213;-59
2022/07/22 05:08:39;;;;;;;23.80;21.83;;;;;;;17.16;100.00;97383.84;4921335;28;20963;-60
2022/07/22 05:11:08;;;;;;;24.93;22.77;;;;;;;17.28;100.00;97376.75;4936873;28;20225;-62
2022/07/22 05:13:36;;;;;;;22.73;20.73;;;;;;;17.43;100.00;97386.25;4965641;28;20602;-53
2022/07/22 05:16:05;;;;;;;22.60;20.53;;;;;;;17.59;100.00;97376.81;4934373;28;20594;-58
2022/07/22 05:18:34;;;;;;;22.53;20.93;;;;;;;17.72;100.00;97379.31;4970381;28;20237;-59
2022/07/22 05:21:04;;;;;;;22.17;20.43;;;;;;;17.84;100.00;97376.69;4972225;28;20205;-58
2022/07/22 05:23:32;;;;;;;22.60;20.87;;;;;;;17.99;100.00;97378.13;4970785;28;20209;-55
2022/07/22 05:26:01;;;;;;;22.67;20.97;;;;;;;18.13;100.00;97374.28;4920096;28;20217;-60
2022/07/22 05:28:29;;;;;;;23.27;21.37;;;;;;;18.22;100.00;97375.59;4889818;28;20237;-61
2022/07/22 05:30:57;;;;;;;23.07;20.97;;;;;;;18.33;100.00;97376.66;4955607;28;20580;-60
2022/07/22 05:33:26;;;;;;;23.83;21.70;;;;;;;18.55;100.00;97386.84;4971449;28;20205;-58
2022/07/22 05:35:54;;;;;;;22.50;20.63;;;;;;;18.60;100.00;97373.59;4950423;28;20322;-56
2022/07/22 05:38:24;;;;;;;22.00;20.40;;;;;;;18.83;100.00;97381.88;4972092;28;20638;-54
2022/07/22 05:40:52;;;;;;;24.33;22.30;;;;;;;19.00;100.00;97380.16;4966516;28;20396;-56
2022/07/22 05:43:20;;;;;;;23.70;21.70;;;;;;;19.12;100.00;97382.84;4921890;28;20221;-57
2022/07/22 05:45:48;;;;;;;22.40;20.60;;;;;;;19.25;100.00;97381.78;4966147;28;20272;-55
2022/07/22 05:48:16;;;;;;;22.47;20.77;;;;;;;19.33;100.00;97378.75;4967334;28;20367;-55
2022/07/22 05:50:45;;;;;;;23.43;21.43;;;;;;;19.45;100.00;97375.22;4953410;28;20221;-57
2022/07/22 05:53:13;;;;;;;22.50;20.70;;;;;;;19.64;100.00;97375.88;4967002;28;20209;-59
2022/07/22 05:55:42;;;;;;;21.80;20.10;;;;;;;19.73;100.00;97377.16;4968800;28;20271;-55
2022/07/22 05:58:11;;;;;;;21.90;20.10;;;;;;;19.75;100.00;97380.41;4922755;28;20561;-58
2022/07/22 06:00:40;;;;;;;21.60;19.97;;;;;;;19.92;100.00;97379.69;4967440;28;20213;-53
2022/07/22 06:03:08;;;;;;;22.00;20.30;;;;;;;19.99;100.00;97374.16;4967546;28;20862;-59
2022/07/22 06:05:44;;;;;;;22.33;20.47;;;;;;;20.09;100.00;97375.19;4953233;28;20280;-58
2022/07/22 06:08:13;;;;;;;20.87;19.17;;;;;;;20.17;100.00;97367.78;4966456;28;20915;-57
2022/07/22 06:10:42;;;;;;;22.73;20.83;;;;;;;20.29;100.00;97368.50;4968359;28;20246;-56
2022/07/22 06:13:10;;;;;;;22.50;20.80;;;;;;;20.36;100.00;97369.16;4922655;28;20229;-56
2022/07/22 06:15:39;;;;;;;22.77;21.07;;;;;;;20.47;100.00;97372.84;4969259;28;20260;-56
2022/07/22 06:18:07;;;;;;;21.40;19.60;;;;;;;20.64;100.00;97375.56;4962533;28;20514;-57
2022/07/22 06:20:35;;;;;;;22.07;20.23;;;;;;;20.74;100.00;97377.59;4967779;28;20205;-60
2022/07/22 06:23:04;;;;;;;22.93;21.10;;;;;;;20.87;100.00;97379.19;4949323;28;20295;-58
2022/07/22 06:25:32;;;;;;;22.70;20.80;;;;;;;20.85;100.00;97375.94;4965981;28;20272;-59
2022/07/22 06:28:11;;;;;;;22.67;20.97;;;;;;;20.95;100.00;97373.38;4920418;28;20931;-52
2022/07/22 06:30:40;;;;;;;22.93;21.23;;;;;;;21.05;100.00;97370.03;4966028;28;20698;-60
2022/07/22 06:33:08;;;;;;;23.50;21.43;;;;;;;21.26;100.00;97370.31;4964017;28;20669;-52
2022/07/22 06:35:39;;;;;;;23.53;21.40;;;;;;;21.35;100.00;97379.56;4966110;28;20213;-57
2022/07/22 06:38:07;;;;;;;22.83;21.03;;;;;;;21.48;100.00;97377.59;4948840;28;20481;-56
2022/07/22 06:40:45;;;;;;;23.67;21.67;;;;;;;21.48;100.00;97374.91;4964646;28;20213;-56
2022/07/22 06:43:15;;;;;;;22.30;20.43;;;;;;;21.48;100.00;97378.41;4921996;28;20930;-56
2022/07/22 06:45:43;;;;;;;21.90;20.30;;;;;;;21.64;100.00;97376.75;4965170;28;20221;-60
2022/07/22 06:48:11;;;;;;;23.50;21.60;;;;;;;21.76;100.00;97386.56;4962600;28;20643;-58
2022/07/22 06:50:40;;;;;;;22.40;20.63;;;;;;;21.77;100.00;97383.66;4966903;28;20210;-50
2022/07/22 06:53:08;;;;;;;22.73;20.73;;;;;;;21.91;100.00;97384.06;4947104;28;20761;-60
2022/07/22 06:55:36;;;;;;;21.27;19.60;;;;;;;22.03;100.00;97383.94;4964686;28;20233;-54
2022/07/22 06:58:04;;;;;;;22.93;20.93;;;;;;;22.14;100.00;97384.84;4919048;28;20777;-54
2022/07/22 07:00:34;;;;;;;22.00;19.80;;;;;;;22.25;100.00;97374.97;4966584;28;20202;-59
2022/07/22 07:03:02;;;;;;;21.83;20.00;;;;;;;22.30;100.00;97375.00;4964656;28;20562;-56
2022/07/22 07:05:50;;;;;;;21.93;20.00;;;;;;;22.49;100.00;97378.19;4967173;28;20706;-58
2022/07/22 07:08:19;;;;;;;21.47;19.73;;;;;;;22.57;100.00;97376.91;4965794;28;20506;-56
2022/07/22 07:10:47;;;;;;;20.67;19.00;;;;;;;22.79;100.00;97379.50;4954091;28;20263;-60
2022/07/22 07:13:16;;;;;;;20.07;18.17;;;;;;;22.87;100.00;97374.69;4962267;28;20221;-59
2022/07/22 07:15:45;;;;;;;20.23;18.53;;;;;;;22.96;100.00;97370.47;4925256;28;20271;-56
2022/07/22 07:18:13;;;;;;;18.13;16.53;;;;;;;22.98;100.00;97371.81;4969496;28;20229;-59
2022/07/22 07:20:42;;;;;;;18.73;17.07;;;;;;;23.20;100.00;97370.06;4968760;28;20313;-60
2022/07/22 07:23:10;;;;;;;18.30;16.50;;;;;;;23.24;100.00;97374.72;4963504;28;20316;-56
2022/07/22 07:25:39;;;;;;;18.47;16.93;;;;;;;23.24;100.00;97376.56;4951579;28;20607;-56
2022/07/22 07:28:07;;;;;;;16.03;14.73;;;;;;;23.37;100.00;97365.31;4964275;28;20673;-57
2022/07/22 07:30:36;;;;;;;12.50;11.50;;;;;;;23.39;100.00;97365.88;4923667;28;20217;-58
2022/07/22 07:33:05;;;;;;;14.67;13.30;;;;;;;23.45;100.00;97363.19;4964842;28;20679;-58
2022/07/22 07:35:34;;;;;;;15.03;13.77;;;;;;;23.66;100.00;97361.38;4902451;28;20840;-54
2022/07/22 07:38:02;;;;;;;16.40;14.90;;;;;;;23.77;100.00;97359.53;4965306;28;20232;-59
2022/07/22 07:40:30;;;;;;;14.80;13.60;;;;;;;23.94;100.00;97354.69;4944209;28;20288;-53
2022/07/22 07:42:59;;;;;;;14.37;13.20;;;;;;;23.96;100.00;97359.84;4967596;28;20213;-59
2022/07/22 07:45:31;;;;;;;13.50;12.37;;;;;;;23.92;100.00;97354.16;4952688;28;20214;-58
2022/07/22 07:47:59;;;;;;;13.10;11.80;;;;;;;24.01;100.00;97353.66;4969473;28;20221;-54
2022/07/22 07:50:29;;;;;;;12.83;11.87;;;;;;;24.06;100.00;97359.91;4925017;28;20589;-53
2022/07/22 07:52:58;;;;;;;10.80;9.97;;;;;;;24.11;100.00;97356.41;4971809;28;20955;-55
2022/07/22 07:55:26;;;;;;;11.07;10.10;;;;;;;24.20;100.00;97343.13;4967138;28;20209;-58
2022/07/22 07:57:54;;;;;;;10.50;9.60;;;;;;;24.00;100.00;97352.84;4959571;28;20292;-58
2022/07/22 08:00:27;;;;;;;10.77;9.93;;;;;;;24.12;100.00;97349.91;4956387;28;20329;-58
2022/07/22 08:02:56;;;;;;;11.40;10.63;;;;;;;24.37;100.00;97342.88;4969643;28;20238;-56
2022/07/22 08:05:27;;;;;;;11.63;10.80;;;;;;;24.46;100.00;97349.41;4926110;28;20305;-60
2022/07/22 08:07:58;;;;;;;10.80;10.00;;;;;;;24.66;100.00;97345.88;4969793;28;20253;-55
2022/07/22 08:10:26;;;;;;;10.67;9.60;;;;;;;24.68;100.00;97343.72;4966228;28;20248;-56
2022/07/22 08:13:15;;;;;;;10.57;9.70;;;;;;;24.67;100.00;97342.09;4956160;28;20251;-57
2022/07/22 08:15:43;;;;;;;10.57;9.87;;;;;;;24.81;100.00;97342.38;4959146;28;20265;-55
2022/07/22 08:18:11;;;;;;;9.30;8.40;;;;;;;24.81;91.32;97341.56;4967755;28;20329;-59
2022/07/22 08:20:39;;;;;;;9.67;9.03;;;;;;;24.83;94.01;97342.91;4969693;28;20367;-63
2022/07/22 08:23:09;;;;;;;9.37;8.67;;;;;;;24.91;97.46;97336.13;4927892;28;20310;-56
2022/07/22 08:25:37;;;;;;;9.90;9.20;;;;;;;24.94;98.37;97334.78;4965920;28;20793;-56
2022/07/22 08:28:05;;;;;;;8.73;8.13;;;;;;;25.08;91.85;97341.22;4957739;28;20242;-56
2022/07/22 08:30:34;;;;;;;8.00;7.40;;;;;;;25.11;87.37;97334.47;4956657;28;20681;-55
2022/07/22 08:33:03;;;;;;;7.67;7.13;;;;;;;25.09;80.38;97332.00;4973400;28;20225;-53
2022/07/22 08:35:31;;;;;;;8.17;7.67;;;;;;;25.25;84.22;97334.69;4968224;28;20470;-61
2022/07/22 08:37:59;;;;;;;9.37;8.70;;;;;;;25.05;87.01;97336.34;4928931;28;20237;-63
2022/07/22 08:40:29;;;;;;;9.53;8.83;;;;;;;25.05;89.31;97328.22;4966483;28;20213;-58
2022/07/22 08:42:57;;;;;;;10.97;10.17;;;;;;;25.11;93.84;97334.47;4958329;28;20217;-53
2022/07/22 08:45:25;;;;;;;10.63;9.83;;;;;;;25.22;92.30;97327.13;4957819;28;20661;-58
2022/07/22 08:47:54;;;;;;;10.07;9.23;;;;;;;25.33;89.57;97326.00;4971352;28;20409;-60
2022/07/22 08:50:22;;;;;;;10.30;9.57;;;;;;;25.50;89.56;97322.97;4967273;28;20599;-59
2022/07/22 08:52:50;;;;;;;10.63;9.90;;;;;;;25.49;89.77;97321.34;4926416;28;20303;-55
2022/07/22 08:55:19;;;;;;;9.40;8.57;;;;;;;25.45;88.39;97317.53;4968768;28;20651;-62
2022/07/22 08:57:50;;;;;;;10.13;9.23;;;;;;;25.34;87.14;97314.06;4970725;28;20225;-59
2022/07/22 09:00:20;;;;;;;9.70;9.03;;;;;;;25.59;90.17;97309.66;4955095;28;20213;-60
2022/07/22 09:02:48;;;;;;;9.93;9.17;;;;;;;25.76;83.37;97312.00;4957913;28;20725;-50
2022/07/22 09:05:17;;;;;;;8.40;7.80;;;;;;;26.00;75.70;97312.13;4969788;28;20209;-57
2022/07/22 09:08:05;;;;;;;10.23;9.53;;;;;;;26.00;84.00;97308.59;4925286;28;20611;-58
2022/07/22 09:10:35;;;;;;;10.53;9.63;;;;;;;26.10;85.72;97321.28;4964890;28;20722;-58
2022/07/22 09:13:06;;;;;;;10.33;9.63;;;;;;;26.24;83.14;97318.78;4966805;28;20352;-60
2022/07/22 09:15:36;;;;;;;10.07;9.10;;;;;;;26.24;78.78;97314.13;4953442;28;20427;-55
2022/07/22 09:18:06;;;;;;;10.30;9.50;;;;;;;26.19;78.15;97316.91;4957125;28;20722;-54
2022/07/22 09:20:35;;;;;;;9.90;9.10;;;;;;;26.09;86.76;97312.31;4967767;28;20883;-55
2022/07/22 09:23:10;;;;;;;8.47;7.93;;;;;;;26.04;81.78;97303.41;4967994;28;20205;-55
2022/07/22 09:25:40;;;;;;;9.67;8.80;;;;;;;25.91;79.19;97308.34;4937306;28;20403;-58
2022/07/22 09:28:15;;;;;;;8.87;8.23;;;;;;;25.94;78.00;97309.72;4972024;28;20461;-54
2022/07/22 09:30:51;;;;;;;12.73;10.23;;;;;;;26.11;82.18;97312.03;4954806;28;20391;-57
2022/07/22 09:33:22;;;;;;;10.53;9.67;;;;;;;26.20;81.87;97315.81;4954625;28;20232;-58
2022/07/22 09:35:51;;;;;;;10.33;9.47;;;;;;;26.46;83.26;97306.63;4968975;28;20637;-57
2022/07/22 09:38:27;;;;;;;10.00;9.30;;;;;;;26.58;83.87;97307.09;4941921;28;20283;-56
2022/07/22 09:40:56;;;;;;;10.17;9.47;;;;;;;26.69;79.80;97302.34;4967820;28;20228;-59
2022/07/22 09:43:32;;;;;;;10.87;9.83;;;;;;;26.97;79.58;97297.22;4906714;28;20210;-59
2022/07/22 09:46:00;;;;;;;10.20;9.60;;;;;;;26.92;73.90;97289.94;4968287;28;20255;-59
2022/07/22 09:48:28;;;;;;;10.67;9.67;;;;;;;26.97;77.35;97294.50;4955686;28;20241;-58
2022/07/22 09:50:57;;;;;;;10.30;9.60;;;;;;;27.04;76.93;97289.53;4956501;28;20384;-59
2022/07/22 09:53:28;;;;;;;10.63;9.63;;;;;;;27.14;78.01;97289.44;4967769;28;20253;-54
2022/07/22 09:55:57;;;;;;;10.47;9.67;;;;;;;27.21;78.95;97290.97;4957322;28;20942;-56
2022/07/22 09:58:27;;;;;;;10.70;10.00;;;;;;;27.53;69.25;97282.16;4926321;28;20233;-57
2022/07/22 10:00:59;;;;;;;9.33;8.73;;;;;;;27.68;70.88;97281.16;4968341;28;20405;-59
2022/07/22 10:03:29;;;;;;;10.90;10.07;;;;;;;27.90;67.83;97274.31;4955734;28;20209;-58
2022/07/22 10:05:58;;;;;;;10.10;9.40;;;;;;;28.01;66.84;97275.78;4964289;28;20415;-59
2022/07/22 10:08:27;;;;;;;9.73;9.13;;;;;;;27.78;66.09;97273.94;4966468;28;20222;-58
2022/07/22 10:11:00;;;;;;;10.20;9.40;;;;;;;27.92;64.94;97265.84;4967118;28;20798;-56
2022/07/22 10:13:30;;;;;;;9.57;8.93;;;;;;;28.13;70.21;97269.06;4939638;28;20221;-61
2022/07/22 10:15:59;;;;;;;10.40;9.50;;;;;;;28.12;70.01;97259.25;4949436;28;20402;-57
2022/07/22 10:18:29;;;;;;;9.23;8.57;;;;;;;28.22;69.10;97264.56;4953940;28;20719;-58
2022/07/22 10:21:05;;;;;;;10.20;9.43;;;;;;;28.23;67.58;97254.50;4967767;28;20822;-55
2022/07/22 10:23:33;;;;;;;9.83;9.00;;;;;;;28.50;65.81;97251.03;4964331;28;20241;-58
2022/07/22 10:26:03;;;;;;;9.57;8.63;;;;;;;28.63;58.36;97248.66;4967438;28;20660;-57
2022/07/22 10:28:35;;;;;;;8.70;8.07;;;;;;;28.52;57.44;97256.19;4928881;28;20282;-58
2022/07/22 10:31:21;;;;;;;8.40;7.80;;;;;;;28.51;55.11;97254.56;4966152;28;20216;-59
2022/07/22 10:33:51;;;;;;;8.43;7.90;;;;;;;28.41;54.89;97250.94;4953097;28;21434;-55
2022/07/22 10:36:34;;;;;;;10.03;9.10;;;;;;;28.37;60.64;97249.88;4968781;28;20591;-56
2022/07/22 10:39:05;;;;;;;10.70;9.67;;;;;;;28.37;58.47;97246.38;4967277;28;20230;-57
2022/07/22 10:41:35;;;;;;;9.63;8.93;;;;;;;28.22;62.93;97239.25;4966112;28;20688;-58
2022/07/22 10:44:05;;;;;;;9.87;9.10;;;;;;;28.65;66.19;97243.69;4921672;28;20294;-59
2022/07/22 10:46:52;;;;;;;10.30;9.40;;;;;;;28.79;61.17;97241.00;4966373;28;20354;-57
2022/07/22 10:49:24;;;;;;;9.63;8.93;;;;;;;28.69;61.77;97240.06;4953707;28;20283;-59
2022/07/22 10:52:12;;;;;;;9.17;8.57;;;;;;;28.84;65.17;97240.91;4966108;28;20309;-59
2022/07/22 10:55:19;;;;;;;9.47;8.83;;;;;;;29.13;54.36;97242.50;4963995;28;20233;-56
2022/07/22 10:57:49;;;;;;;9.30;8.60;;;;;;;29.48;54.28;97236.66;4964275;28;20370;-52
2022/07/22 11:00:19;;;;;;;9.37;8.57;;;;;;;29.22;55.68;97245.34;4923910;28;20333;-55
2022/07/22 11:02:47;;;;;;;10.17;9.30;;;;;;;29.19;48.37;97246.78;4960429;28;20777;-57
2022/07/22 11:05:16;;;;;;;8.33;7.83;;;;;;;28.88;50.28;97231.03;4950057;28;20780;-58
2022/07/22 11:07:44;;;;;;;11.30;10.47;;;;;;;28.64;52.49;97236.63;4951124;28;20813;-56
2022/07/22 11:10:14;;;;;;;9.07;8.47;;;;;;;28.29;54.69;97231.50;4950173;28;20561;-57
2022/07/22 11:12:48;;;;;;;8.67;8.17;;;;;;;28.40;52.90;97226.69;4953132;28;20455;-56
2022/07/22 11:15:19;;;;;;;9.03;8.43;;;;;;;28.55;55.20;97218.22;4883449;28;20990;-56
2022/07/22 11:17:47;;;;;;;9.30;8.50;;;;;;;28.51;56.48;97227.31;4967556;28;20753;-60
2022/07/22 11:20:15;;;;;;;8.57;7.97;;;;;;;28.73;53.30;97213.81;4955940;28;20824;-55
2022/07/22 11:22:47;;;;;;;9.80;9.10;;;;;;;28.74;50.76;97214.63;4971481;28;20600;-59
2022/07/22 11:25:17;;;;;;;9.70;8.90;;;;;;;29.00;52.20;97214.16;4969637;28;20201;-59